Hilford, Kansas
Current Conditions -  °F | °C
As of 2:52 AM on Wednesday 28 Jan 2015 (Local Time) from KPPF Reporting Station
Clear Clear  
Wind Chill: 44°   Ceiling: Unl
Heat Index: 46°   Visibility: 10mi
Dew Point: 34°   Wind: 5mph
Humidity: 63%   Direction: 180°S
Pressure: 30.02"   Gusts: NA
Location:  37.428°N, 95.6341°W
Report Text: KPPF 280852Z AUTO 18004KT 10SM CLR 08/01 A3002 RMK AO2 SLP163 T00780011 56007
Loading
Personal Weather Stations






























Interactive Weather Map New forecast layout! Learn more

10-Day Weather Forecast

Advertisements
Track Severe Weather on mobile